Time;durP1;ratioP1;P1;durP2;ratioP2;P2;SDS_P1;SDS_P2;PMS_P1;PMS_P2;Temp;Humidity;BMP_temperature;BMP_pressure;BME280_temperature;BME280_humidity;BME280_pressure;Samples;Min_cycle;Max_cycle;Signal;HPM_P1;HPM_P2
2022/09/28 05:05:24;;;;;;;;;;;;;;;14.09;74.14;95345.31;4261537;27;10188;-70
2022/09/28 05:07:27;;;;;;;;;;;;;;;14.40;73.33;95330.47;4238358;27;5801;-69
2022/09/28 05:09:29;;;;;;;;;;;;;;;14.64;72.83;95329.09;4236911;27;5619;-69
2022/09/28 05:11:37;;;;;;;;;;;;;;;14.84;72.32;95331.94;4241065;27;5636;-69
2022/09/28 05:13:42;;;;;;;;;;;;;;;14.97;72.23;95325.34;4236482;27;5636;-70
2022/09/28 05:15:45;;;;;;;;;;;;;;;15.10;71.85;95329.44;4231278;28;5643;-69
2022/09/28 05:17:48;;;;;;;;;;;;;;;15.19;71.78;95322.56;4231167;28;5076;-69
2022/09/28 05:19:51;;;;;;;;;;;;;;;15.27;71.78;95314.06;4231081;27;5619;-70
2022/09/28 05:21:56;;;;;;;;;;;;;;;15.37;71.69;95316.00;4252478;27;5578;-70
2022/09/28 05:23:59;;;;;;;;;;;;;;;15.40;71.51;95308.31;4239987;27;5607;-70
2022/09/28 05:26:03;;;;;;;;;;;;;;;15.47;71.17;95307.25;4243399;27;5812;-70
2022/09/28 05:28:06;;;;;;;;;;;;;;;15.52;71.37;95294.78;4231832;27;5622;-69
2022/09/28 05:30:10;;;;;;;;;;;;;;;15.58;71.08;95295.59;4238726;27;5795;-70
2022/09/28 05:32:13;;;;;;;;;;;;;;;15.62;71.09;95284.16;4236494;27;5617;-70
2022/09/28 05:34:15;;;;;;;;;;;;;;;15.66;71.25;95287.13;4247902;27;5769;-70
2022/09/28 05:36:18;;;;;;;;;;;;;;;15.69;70.98;95282.06;4244021;27;5637;-70
2022/09/28 05:38:22;;;;;;;;;;;;;;;15.72;70.94;95278.88;4244968;27;5827;-70
2022/09/28 05:40:25;;;;;;;;;;;;;;;15.76;70.98;95283.69;4256596;27;5597;-70
2022/09/28 05:42:29;;;;;;;;;;;;;;;15.79;70.81;95280.50;4247867;27;5640;-70
2022/09/28 05:44:32;;;;;;;;;;;;;;;15.79;70.98;95293.81;4247197;27;7108;-71
2022/09/28 05:46:35;;;;;;;;;;;;;;;15.79;70.95;95304.47;4231138;28;5627;-70
2022/09/28 05:48:38;;;;;;;;;;;;;;;15.79;71.08;95293.81;4235723;27;5690;-70
2022/09/28 05:50:41;;;;;;;;;;;;;;;15.83;70.92;95297.56;4247771;27;5608;-70
2022/09/28 05:52:44;;;;;;;;;;;;;;;15.81;70.99;95303.16;4247571;27;5709;-70
2022/09/28 05:54:48;;;;;;;;;;;;;;;15.81;71.00;95295.16;4247375;27;5685;-70
2022/09/28 05:56:53;;;;;;;;;;;;;;;15.82;71.03;95303.94;4247848;27;5619;-70
2022/09/28 05:58:57;;;;;;;;;;;;;;;15.83;70.85;95300.22;4247497;27;5665;-70
2022/09/28 06:01:00;;;;;;;;;;;;;;;15.86;70.88;95310.38;4247486;27;5682;-70
2022/09/28 06:03:04;;;;;;;;;;;;;;;15.88;70.88;95303.72;4246655;27;5605;-70
2022/09/28 06:05:16;;;;;;;;;;;;;;;15.92;70.98;95303.97;4231218;28;5832;-70
2022/09/28 06:07:19;;;;;;;;;;;;;;;15.94;70.91;95305.31;4236206;28;5859;-70
2022/09/28 06:09:22;;;;;;;;;;;;;;;15.95;70.87;95303.44;4236283;28;5800;-70
2022/09/28 06:11:28;;;;;;;;;;;;;;;15.95;70.81;95304.25;4236214;28;5608;-70
2022/09/28 06:13:31;;;;;;;;;;;;;;;15.97;70.76;95304.00;4236281;28;5593;-70
2022/09/28 06:15:36;;;;;;;;;;;;;;;15.97;70.78;95302.16;4236040;28;5593;-70
2022/09/28 06:17:39;;;;;;;;;;;;;;;15.97;70.75;95312.00;4236032;28;5649;-70
2022/09/28 06:19:42;;;;;;;;;;;;;;;15.96;70.67;95297.06;4225292;28;7229;-69
2022/09/28 06:21:47;;;;;;;;;;;;;;;15.93;70.90;95302.91;4219082;28;5615;-70
2022/09/28 06:23:50;;;;;;;;;;;;;;;15.93;70.67;95294.94;4218853;28;5683;-70
2022/09/28 06:25:53;;;;;;;;;;;;;;;15.94;70.72;95291.19;4230004;28;5705;-71
2022/09/28 06:27:59;;;;;;;;;;;;;;;15.93;70.79;95278.94;4235883;28;5808;-70
2022/09/28 06:30:02;;;;;;;;;;;;;;;15.93;70.69;95297.59;4235448;28;5611;-70
2022/09/28 06:32:07;;;;;;;;;;;;;;;15.95;70.61;95292.78;4218937;28;5765;-71
2022/09/28 06:34:11;;;;;;;;;;;;;;;15.93;70.84;95284.25;4218690;28;5624;-71
2022/09/28 06:36:14;;;;;;;;;;;;;;;15.94;70.80;95293.84;4224163;28;5109;-71
2022/09/28 06:38:16;;;;;;;;;;;;;;;15.95;70.75;95282.13;4235865;28;5711;-71
2022/09/28 06:40:20;;;;;;;;;;;;;;;15.96;70.60;95281.06;4249525;27;5661;-70
2022/09/28 06:42:23;;;;;;;;;;;;;;;15.97;70.85;95288.03;4252708;27;5668;-71
2022/09/28 06:44:28;;;;;;;;;;;;;;;15.96;70.74;95295.19;4252578;27;5684;-71
2022/09/28 06:46:31;;;;;;;;;;;;;;;15.95;70.65;95290.13;4234412;28;5669;-70
2022/09/28 06:48:34;;;;;;;;;;;;;;;15.97;70.68;95293.34;4252607;27;5638;-71
2022/09/28 06:50:40;;;;;;;;;;;;;;;16.00;70.56;95295.47;4252658;27;5594;-70
2022/09/28 06:52:44;;;;;;;;;;;;;;;15.99;70.64;95291.22;4249232;27;5743;-71
2022/09/28 06:54:47;;;;;;;;;;;;;;;16.00;70.72;95317.59;4216817;28;5797;-71
2022/09/28 06:56:50;;;;;;;;;;;;;;;16.01;70.70;95307.75;4217102;28;5742;-70
2022/09/28 06:58:53;;;;;;;;;;;;;;;16.04;70.86;95317.88;4235510;28;5815;-70
2022/09/28 07:00:58;;;;;;;;;;;;;;;16.08;70.78;95307.47;4235482;28;5698;-71
2022/09/28 07:03:06;;;;;;;;;;;;;;;16.11;70.85;95291.78;4235466;28;6317;-71
2022/09/28 07:05:13;;;;;;;;;;;;;;;16.16;70.63;95304.31;4218076;28;5781;-71
2022/09/28 07:07:17;;;;;;;;;;;;;;;16.21;70.66;95305.13;4218377;28;5898;-71
2022/09/28 07:09:20;;;;;;;;;;;;;;;16.26;70.39;95304.31;4218286;28;7670;-71
2022/09/28 07:11:39;;;;;;;;;;;;;;;16.32;70.31;95305.16;4218400;28;5615;-71
2022/09/28 07:13:42;;;;;;;;;;;;;;;16.36;70.32;95308.88;4218490;28;5641;-70
2022/09/28 07:15:55;;;;;;;;;;;;;;;16.40;70.01;95293.94;4218396;28;5727;-71
2022/09/28 07:18:00;;;;;;;;;;;;;;;16.42;69.93;95295.28;4222018;28;5748;-70
2022/09/28 07:20:06;;;;;;;;;;;;;;;16.50;69.92;95293.94;4224047;28;5968;-70
2022/09/28 07:22:20;;;;;;;;;;;;;;;16.54;69.82;95287.03;4229509;28;5611;-70
2022/09/28 07:24:40;;;;;;;;;;;;;;;16.57;69.67;95302.47;4221770;28;5611;-70
2022/09/28 07:26:44;;;;;;;;;;;;;;;16.61;69.63;95308.88;4225776;28;5742;-69
2022/09/28 07:28:47;;;;;;;;;;;;;;;16.66;69.48;95292.88;4218110;28;5703;-69
2022/09/28 07:30:50;;;;;;;;;;;;;;;16.69;69.43;95308.38;4228684;28;5605;-70
2022/09/28 07:32:53;;;;;;;;;;;;;;;16.73;69.34;95304.09;4234923;28;5609;-69
2022/09/28 07:34:57;;;;;;;;;;;;;;;16.77;69.29;95304.38;4234695;28;5675;-69
2022/09/28 07:37:01;;;;;;;;;;;;;;;16.80;69.06;95304.63;4235251;28;6278;-70
2022/09/28 07:39:04;;;;;;;;;;;;;;;16.84;69.05;95300.34;4234691;28;7409;-70
2022/09/28 07:41:13;;;;;;;;;;;;;;;16.89;68.88;95302.25;4234503;28;5825;-70
2022/09/28 07:43:19;;;;;;;;;;;;;;;16.90;68.93;95311.84;4234474;28;5719;-70
2022/09/28 07:45:23;;;;;;;;;;;;;;;16.88;68.61;95296.09;4233926;28;5683;-70
2022/09/28 07:47:27;;;;;;;;;;;;;;;16.86;68.86;95297.41;4216546;28;5762;-70
2022/09/28 07:49:36;;;;;;;;;;;;;;;16.83;68.93;95288.09;4234824;28;5687;-70
2022/09/28 07:51:42;;;;;;;;;;;;;;;16.82;68.90;95291.81;4234688;28;5605;-70
2022/09/28 07:53:46;;;;;;;;;;;;;;;16.87;68.84;95299.00;4234378;28;5682;-70
2022/09/28 07:55:51;;;;;;;;;;;;;;;16.90;68.78;95293.16;4204785;28;5692;-70
2022/09/28 07:57:55;;;;;;;;;;;;;;;16.94;68.70;95294.22;4232419;28;5597;-70
2022/09/28 08:00:01;;;;;;;;;;;;;;;16.97;68.64;95299.00;4203721;28;5704;-70
2022/09/28 08:02:03;;;;;;;;;;;;;;;17.01;68.68;95305.41;4220164;28;5640;-70
2022/09/28 08:04:06;;;;;;;;;;;;;;;17.03;68.54;95299.81;4213933;28;5779;-69
2022/09/28 08:06:11;;;;;;;;;;;;;;;17.06;68.40;95313.41;4223873;28;5156;-70
2022/09/28 08:08:17;;;;;;;;;;;;;;;17.09;68.12;95307.53;4227466;28;5620;-70
2022/09/28 08:10:22;;;;;;;;;;;;;;;17.12;68.22;95298.19;4221419;28;5676;-70
2022/09/28 08:12:25;;;;;;;;;;;;;;;17.17;68.10;95308.84;4231146;28;5604;-70
2022/09/28 08:14:33;;;;;;;;;;;;;;;17.19;67.92;95312.03;4217312;28;5735;-70
2022/09/28 08:16:36;;;;;;;;;;;;;;;17.23;67.82;95307.78;4222565;28;5691;-71
2022/09/28 08:18:42;;;;;;;;;;;;;;;17.26;67.84;95309.91;4223283;28;5634;-70
2022/09/28 08:23:06;;;;;;;;;;;;;;;17.30;67.47;95302.94;4234276;28;5764;-70
2022/09/28 08:25:10;;;;;;;;;;;;;;;17.33;67.46;95297.09;4233353;28;5601;-70
2022/09/28 08:27:16;;;;;;;;;;;;;;;17.36;67.35;95301.88;4217685;28;5691;-70
2022/09/28 08:29:27;;;;;;;;;;;;;;;17.38;67.47;95307.72;4223425;28;5836;-70
2022/09/28 08:31:30;;;;;;;;;;;;;;;17.41;67.46;95317.06;4232379;28;5609;-73
2022/09/28 08:33:33;;;;;;;;;;;;;;;17.43;67.34;95317.59;4215817;27;7720;-69
2022/09/28 08:35:36;;;;;;;;;;;;;;;17.42;67.08;95316.78;4226831;28;5676;-69
2022/09/28 08:37:39;;;;;;;;;;;;;;;17.38;67.23;95320.28;4222745;28;5648;-70
2022/09/28 08:39:50;;;;;;;;;;;;;;;17.34;67.30;95308.56;4219181;28;5958;-69
2022/09/28 08:42:06;;;;;;;;;;;;;;;17.29;67.30;95328.06;4222005;28;5586;-67
2022/09/28 08:44:15;;;;;;;;;;;;;;;17.28;67.29;95326.47;4233885;28;5616;-68
2022/09/28 08:51:10;;;;;;;;;;;;;;;17.29;67.52;95343.28;4133193;28;5577;-65
2022/09/28 08:53:30;;;;;;;;;;;;;;;17.28;67.31;95337.13;4148311;28;5706;-64
2022/09/28 08:55:37;;;;;;;;;;;;;;;17.30;67.35;95335.00;4152657;28;5736;-68
2022/09/28 08:57:46;;;;;;;;;;;;;;;17.31;67.35;95327.78;4136939;28;5722;-67
2022/09/28 08:59:52;;;;;;;;;;;;;;;17.36;67.21;95339.25;4154807;28;5585;-67
2022/09/28 09:01:59;;;;;;;;;;;;;;;17.39;67.23;95333.38;4149303;28;5573;-71
2022/09/28 09:04:06;;;;;;;;;;;;;;;17.44;67.12;95329.88;4148771;28;5585;-68
2022/09/28 09:06:26;;;;;;;;;;;;;;;17.46;66.95;95339.25;4150126;28;5729;-67
2022/09/28 09:08:45;;;;;;;;;;;;;;;17.49;66.97;95335.22;4153655;28;5657;-72
2022/09/28 09:10:52;;;;;;;;;;;;;;;17.52;66.97;95341.88;4139461;28;5856;-73
2022/09/28 09:13:10;;;;;;;;;;;;;;;17.53;66.95;95333.59;4148762;28;5656;-71
2022/09/28 09:15:27;;;;;;;;;;;;;;;17.54;66.88;95337.88;4123678;28;5836;-70
2022/09/28 09:17:44;;;;;;;;;;;;;;;17.55;66.99;95333.31;4143691;28;5692;-70
2022/09/28 09:19:53;;;;;;;;;;;;;;;17.55;66.84;95341.34;4147014;28;5566;-66
2022/09/28 09:22:00;;;;;;;;;;;;;;;17.55;66.71;95336.00;4147854;28;5577;-69
2022/09/28 09:24:12;;;;;;;;;;;;;;;17.57;66.60;95333.88;4143141;28;5672;-67
2022/09/28 09:26:19;;;;;;;;;;;;;;;17.58;66.63;95341.59;4141569;28;5724;-68
2022/09/28 09:28:49;;;;;;;;;;;;;;;17.60;66.57;95334.13;4148543;28;5589;-68
2022/09/28 09:31:03;;;;;;;;;;;;;;;17.64;66.30;95339.72;4145758;28;5731;-73
2022/09/28 09:33:24;;;;;;;;;;;;;;;17.64;66.39;95345.06;4149031;28;5573;-72
2022/09/28 09:36:03;;;;;;;;;;;;;;;17.64;66.19;95345.84;4142930;28;5589;-70
2022/09/28 09:38:20;;;;;;;;;;;;;;;17.63;66.15;95343.44;4148741;28;5587;-70
2022/09/28 09:40:43;;;;;;;;;;;;;;;17.62;66.11;95342.66;4147585;28;5795;-70
2022/09/28 09:42:59;;;;;;;;;;;;;;;17.62;66.04;95337.31;4148648;28;5736;-70
2022/09/28 09:45:18;;;;;;;;;;;;;;;17.65;66.03;95314.59;4147658;28;5787;-70
2022/09/28 09:47:25;;;;;;;;;;;;;;;17.67;65.98;95320.47;4153983;28;5578;-69
2022/09/28 09:49:33;;;;;;;;;;;;;;;17.69;65.92;95315.69;4155943;28;5829;-70
2022/09/28 09:51:44;;;;;;;;;;;;;;;17.68;65.90;95314.84;4152605;28;5665;-70
2022/09/28 09:53:52;;;;;;;;;;;;;;;17.68;65.81;95312.19;4152526;28;5667;-71
2022/09/28 09:55:59;;;;;;;;;;;;;;;17.68;65.80;95322.88;4152847;28;5593;-70
2022/09/28 09:58:10;;;;;;;;;;;;;;;17.68;65.90;95322.88;4150422;28;5718;-69
2022/09/28 10:00:17;;;;;;;;;;;;;;;17.65;65.95;95318.06;4155211;28;5854;-69
2022/09/28 10:02:24;;;;;;;;;;;;;;;17.63;65.87;95332.75;4154610;28;5653;-69
2022/09/28 10:04:32;;;;;;;;;;;;;;;17.57;66.05;95333.88;4143108;28;5589;-70
2022/09/28 10:06:37;;;;;;;;;;;;;;;17.54;65.95;95343.22;4144394;28;5782;-70
2022/09/28 10:08:44;;;;;;;;;;;;;;;17.56;66.01;95337.63;4149573;28;5581;-70
2022/09/28 10:10:49;;;;;;;;;;;;;;;17.59;66.17;95334.41;4147373;28;5660;-70
2022/09/28 10:12:53;;;;;;;;;;;;;;;17.60;66.17;95325.31;4145095;28;5616;-70
2022/09/28 10:14:56;;;;;;;;;;;;;;;17.58;66.19;95324.78;4141562;28;5687;-70
2022/09/28 10:17:02;;;;;;;;;;;;;;;17.56;66.29;95325.06;4144446;28;5589;-70
2022/09/28 10:19:05;;;;;;;;;;;;;;;17.55;66.27;95323.44;4149358;28;5819;-71
2022/09/28 10:21:13;;;;;;;;;;;;;;;17.51;66.44;95317.03;4144204;28;6377;-71
2022/09/28 10:23:22;;;;;;;;;;;;;;;17.54;66.55;95329.03;4151026;28;5720;-71
2022/09/28 10:25:25;;;;;;;;;;;;;;;17.52;66.26;95332.00;4146577;28;5648;-71
2022/09/28 10:27:33;;;;;;;;;;;;;;;17.53;66.70;95316.75;4151995;28;5569;-70
2022/09/28 10:29:49;;;;;;;;;;;;;;;17.51;66.51;95316.25;4153288;28;5638;-71
2022/09/28 10:31:54;;;;;;;;;;;;;;;17.56;66.30;95316.25;4147466;28;5577;-70
2022/09/28 10:33:58;;;;;;;;;;;;;;;17.63;65.94;95308.72;4150445;28;5676;-71
2022/09/28 10:36:04;;;;;;;;;;;;;;;17.67;66.11;95312.47;4150599;28;5848;-71
2022/09/28 10:38:15;;;;;;;;;;;;;;;17.70;66.06;95310.06;4146209;28;7706;-71
2022/09/28 10:40:32;;;;;;;;;;;;;;;17.73;65.87;95312.19;4144795;28;5596;-71
2022/09/28 10:42:36;;;;;;;;;;;;;;;17.73;65.76;95314.84;4145110;28;5819;-70
2022/09/28 10:44:51;;;;;;;;;;;;;;;17.74;65.78;95312.97;4143767;28;5707;-71
2022/09/28 10:47:00;;;;;;;;;;;;;;;17.75;65.49;95309.22;4148951;28;5562;-70
2022/09/28 10:49:13;;;;;;;;;;;;;;;17.76;65.43;95310.81;4151315;28;5585;-70
2022/09/28 10:51:17;;;;;;;;;;;;;;;17.79;65.18;95302.28;4133779;28;5779;-70
2022/09/28 10:53:20;;;;;;;;;;;;;;;17.83;65.06;95297.19;4151683;28;5593;-70
2022/09/28 10:55:29;;;;;;;;;;;;;;;17.88;64.90;95303.28;4151570;28;5940;-70
2022/09/28 10:57:34;;;;;;;;;;;;;;;17.92;64.87;95293.66;4148694;28;7426;-71
2022/09/28 10:59:39;;;;;;;;;;;;;;;17.93;64.71;95286.44;4144704;28;5684;-70
2022/09/28 11:01:42;;;;;;;;;;;;;;;17.98;64.53;95291.75;4153673;28;5665;-70
2022/09/28 11:03:52;;;;;;;;;;;;;;;18.00;64.39;95290.38;4148564;28;5574;-71
2022/09/28 11:05:59;;;;;;;;;;;;;;;18.01;64.42;95283.97;4149180;28;5656;-70
2022/09/28 11:08:07;;;;;;;;;;;;;;;18.02;64.17;95282.13;4145155;28;6220;-69
2022/09/28 11:10:18;;;;;;;;;;;;;;;18.02;64.15;95285.59;4142597;28;5578;-70
2022/09/28 11:12:24;;;;;;;;;;;;;;;18.02;64.05;95272.22;4145191;28;5577;-67
2022/09/28 11:14:34;;;;;;;;;;;;;;;18.02;63.94;95274.88;4148768;28;5581;-68
2022/09/28 11:16:44;;;;;;;;;;;;;;;18.01;63.76;95275.97;4149705;28;5586;-67
2022/09/28 11:18:47;;;;;;;;;;;;;;;18.02;63.81;95279.44;4146233;28;5732;-71
2022/09/28 11:20:50;;;;;;;;;;;;;;;18.03;63.72;95278.34;4147496;28;5589;-69
2022/09/28 11:22:56;;;;;;;;;;;;;;;18.01;63.49;95277.84;4125625;28;5849;-74
2022/09/28 11:25:22;;;;;;;;;;;;;;;18.01;63.29;95275.97;4145605;28;6500;-69
2022/09/28 11:27:26;;;;;;;;;;;;;;;18.01;63.34;95281.31;4147103;28;5684;-67
2022/09/28 11:29:37;;;;;;;;;;;;;;;18.01;63.42;95280.50;4144946;28;5835;-69
2022/09/28 11:31:40;;;;;;;;;;;;;;;17.97;63.38;95279.44;4146594;28;5644;-71
2022/09/28 11:33:46;;;;;;;;;;;;;;;17.93;63.51;95300.59;4146637;28;5607;-74
2022/09/28 11:35:53;;;;;;;;;;;;;;;17.91;63.47;95294.72;4148873;28;5597;-72
2022/09/28 11:38:15;;;;;;;;;;;;;;;17.88;63.56;95283.78;4145482;28;5600;-72
2022/09/28 11:40:35;;;;;;;;;;;;;;;17.83;63.69;95287.28;4146665;28;5656;-70
2022/09/28 11:42:49;;;;;;;;;;;;;;;17.82;63.77;95284.88;4142985;28;5719;-75
2022/09/28 11:44:57;;;;;;;;;;;;;;;17.80;63.90;95276.34;4146029;28;5589;-71
2022/09/28 11:47:12;;;;;;;;;;;;;;;17.79;63.97;95267.53;4144551;28;5110;-71
2022/09/28 11:49:27;;;;;;;;;;;;;;;17.81;63.99;95267.25;4143067;28;5779;-73
2022/09/28 11:51:36;;;;;;;;;;;;;;;17.83;64.07;95257.06;4140714;28;5671;-70
2022/09/28 11:53:45;;;;;;;;;;;;;;;17.83;63.98;95257.06;4140490;28;5882;-72
2022/09/28 11:55:54;;;;;;;;;;;;;;;17.84;63.92;95251.44;4139357;28;5672;-73
2022/09/28 11:58:03;;;;;;;;;;;;;;;17.86;63.93;95245.81;4146766;28;5591;-73
2022/09/28 12:00:12;;;;;;;;;;;;;;;17.87;63.92;95245.53;4142143;28;5704;-73
2022/09/28 12:02:21;;;;;;;;;;;;;;;17.90;63.95;95238.88;4148227;28;5585;-74
2022/09/28 12:04:32;;;;;;;;;;;;;;;17.90;63.93;95233.53;4143454;28;5564;-76
2022/09/28 12:06:41;;;;;;;;;;;;;;;17.91;63.93;95227.09;4151184;28;5827;-74
2022/09/28 12:08:52;;;;;;;;;;;;;;;17.92;63.77;95240.19;4145133;28;5569;-72
2022/09/28 12:10:59;;;;;;;;;;;;;;;17.91;63.95;95232.44;4153279;28;5567;-67
2022/09/28 12:13:07;;;;;;;;;;;;;;;17.94;63.91;95235.34;4130568;28;5787;-68
2022/09/28 12:15:17;;;;;;;;;;;;;;;17.93;63.81;95232.97;4146428;28;5799;-68
2022/09/28 12:17:25;;;;;;;;;;;;;;;17.93;63.99;95225.75;4142736;28;5574;-69
2022/09/28 12:19:33;;;;;;;;;;;;;;;17.93;64.02;95236.44;4147391;28;5558;-68
2022/09/28 12:21:40;;;;;;;;;;;;;;;17.92;63.93;95242.84;4147501;28;5629;-70
2022/09/28 12:23:46;;;;;;;;;;;;;;;17.91;64.06;95246.63;4147582;28;6939;-69
2022/09/28 12:25:58;;;;;;;;;;;;;;;17.93;64.00;95236.44;4147976;28;5723;-67
2022/09/28 12:28:06;;;;;;;;;;;;;;;17.96;64.14;95235.88;4146568;28;5746;-68
2022/09/28 12:30:15;;;;;;;;;;;;;;;17.97;64.04;95242.81;4138663;28;5870;-68
2022/09/28 12:32:27;;;;;;;;;;;;;;;17.98;64.02;95241.75;4149858;28;5609;-69
2022/09/28 12:34:30;;;;;;;;;;;;;;;17.97;64.23;95245.50;4148214;28;5585;-69
2022/09/28 12:36:46;;;;;;;;;;;;;;;17.96;64.26;95245.78;4150101;28;5620;-69
2022/09/28 12:39:10;;;;;;;;;;;;;;;17.92;64.45;95244.75;4158182;28;5830;-68
2022/09/28 12:41:47;;;;;;;;;;;;;;;17.95;64.58;95247.66;4144844;28;5653;-69
2022/09/28 12:44:13;;;;;;;;;;;;;;;17.96;64.63;95243.91;4148042;28;5808;-69
2022/09/28 12:46:32;;;;;;;;;;;;;;;17.98;64.65;95233.72;4145514;28;5711;-71
2022/09/28 12:48:57;;;;;;;;;;;;;;;17.98;64.84;95239.06;4129309;28;5680;-73
2022/09/28 12:51:37;;;;;;;;;;;;;;;17.93;65.12;95235.63;4140434;28;5611;-73
2022/09/28 12:53:59;;;;;;;;;;;;;;;17.92;65.16;95231.38;4149024;28;5743;-73
2022/09/28 12:56:05;;;;;;;;;;;;;;;17.93;65.34;95232.97;4150058;28;5597;-74
2022/09/28 12:58:24;;;;;;;;;;;;;;;17.90;65.52;95225.50;4133967;28;5683;-74
2022/09/28 13:00:36;;;;;;;;;;;;;;;17.90;65.52;95230.84;4151641;28;5834;-73
2022/09/28 13:03:12;;;;;;;;;;;;;;;17.91;65.63;95233.25;4151530;28;5654;-72
2022/09/28 13:05:51;;;;;;;;;;;;;;;17.88;65.67;95222.28;4152402;28;5101;-73
2022/09/28 13:08:01;;;;;;;;;;;;;;;17.89;65.48;95211.31;4131651;28;5668;-73
2022/09/28 13:10:16;;;;;;;;;;;;;;;17.91;65.46;95205.72;4150800;28;5795;-73
2022/09/28 13:12:39;;;;;;;;;;;;;;;17.88;65.28;95209.72;4143313;28;5599;-73
2022/09/28 13:15:23;;;;;;;;;;;;;;;17.91;65.43;95211.84;4150792;28;5608;-73
2022/09/28 13:17:40;;;;;;;;;;;;;;;17.91;65.34;95206.50;4136833;28;5794;-73
2022/09/28 13:19:51;;;;;;;;;;;;;;;17.95;65.34;95212.88;4158443;28;5562;-73
2022/09/28 13:22:02;;;;;;;;;;;;;;;17.97;65.20;95208.06;4156838;28;5590;-72
2022/09/28 13:24:10;;;;;;;;;;;;;;;17.99;65.29;95210.44;4156787;28;5813;-72
2022/09/28 13:26:38;;;;;;;;;;;;;;;18.01;64.97;95211.00;4148065;28;5589;-72
2022/09/28 13:28:45;;;;;;;;;;;;;;;18.03;64.84;95208.84;4160556;28;5657;-77
2022/09/28 13:30:51;;;;;;;;;;;;;;;18.04;65.01;95216.56;4150908;28;5688;-71
2022/09/28 13:32:57;;;;;;;;;;;;;;;18.04;64.99;95211.22;4155987;28;5585;-74
2022/09/28 13:35:02;;;;;;;;;;;;;;;18.02;64.67;95218.72;4153870;28;5578;-76
2022/09/28 13:37:20;;;;;;;;;;;;;;;18.04;64.81;95216.56;4164447;28;5672;-74
2022/09/28 13:39:47;;;;;;;;;;;;;;;18.07;64.76;95223.25;4153666;28;5569;-74
2022/09/28 13:41:50;;;;;;;;;;;;;;;18.06;64.66;95226.19;4153303;28;5562;-74
2022/09/28 13:44:15;;;;;;;;;;;;;;;18.04;64.66;95221.13;4153188;28;5081;-74
2022/09/28 13:46:28;;;;;;;;;;;;;;;18.03;64.54;95219.53;4145952;28;5652;-73
2022/09/28 13:48:44;;;;;;;;;;;;;;;18.06;64.66;95215.50;4146775;28;5799;-71
2022/09/28 13:51:09;;;;;;;;;;;;;;;18.07;64.49;95225.13;4148731;28;5613;-69
2022/09/28 13:53:24;;;;;;;;;;;;;;;18.09;64.18;95223.75;4147140;28;5077;-69
2022/09/28 13:55:37;;;;;;;;;;;;;;;18.08;64.27;95229.38;4140975;28;5791;-70
2022/09/28 13:57:46;;;;;;;;;;;;;;;18.07;64.20;95236.59;4153129;28;5621;-69
2022/09/28 14:00:01;;;;;;;;;;;;;;;18.04;64.31;95235.28;4148335;28;5600;-69
2022/09/28 14:02:21;;;;;;;;;;;;;;;18.02;64.30;95226.75;4150307;28;5648;-73
2022/09/28 14:04:46;;;;;;;;;;;;;;;17.95;64.34;95223.59;4148703;28;5574;-80
2022/09/28 14:06:53;;;;;;;;;;;;;;;17.88;64.64;95225.75;4153080;28;5566;-75
2022/09/28 14:09:24;;;;;;;;;;;;;;;17.84;64.68;95226.59;4154165;28;5569;-74
2022/09/28 14:11:55;;;;;;;;;;;;;;;17.81;64.82;95222.63;4149231;28;5593;-71
2022/09/28 14:14:01;;;;;;;;;;;;;;;17.79;64.92;95224.75;4151846;28;5894;-75
2022/09/28 14:16:25;;;;;;;;;;;;;;;17.82;65.10;95223.41;4151288;28;5691;-78
2022/09/28 14:18:32;;;;;;;;;;;;;;;17.83;64.90;95220.44;4153070;28;5569;-74
2022/09/28 14:20:36;;;;;;;;;;;;;;;17.84;64.88;95224.72;4151817;28;5590;-77
2022/09/28 14:22:56;;;;;;;;;;;;;;;17.85;64.70;95222.84;4152463;28;5589;-73
2022/09/28 14:25:07;;;;;;;;;;;;;;;17.86;64.64;95221.78;4151767;28;5727;-72
2022/09/28 14:27:47;;;;;;;;;;;;;;;17.86;64.80;95222.56;4149048;28;6437;-73
2022/09/28 14:30:05;;;;;;;;;;;;;;;17.86;64.66;95224.44;4147277;28;7025;-74
2022/09/28 14:32:31;;;;;;;;;;;;;;;17.85;64.40;95218.28;4152162;28;5577;-76
2022/09/28 14:34:38;;;;;;;;;;;;;;;17.85;64.33;95233.53;4150293;28;5709;-75
2022/09/28 14:41:43;;;;;;;;;;;;;;;17.86;64.24;95235.13;4146687;28;5594;-76
2022/09/28 14:44:09;;;;;;;;;;;;;;;17.85;64.34;95229.00;4149809;28;5604;-73
2022/09/28 14:46:34;;;;;;;;;;;;;;;17.86;64.37;95233.25;4147128;28;5589;-73
2022/09/28 14:48:47;;;;;;;;;;;;;;;17.87;64.27;95236.72;4145438;28;5569;-74
2022/09/28 14:50:54;;;;;;;;;;;;;;;17.86;64.17;95238.59;4145876;28;5801;-73
2022/09/28 14:53:04;;;;;;;;;;;;;;;17.86;64.23;95235.94;4150225;28;5573;-73
2022/09/28 14:55:14;;;;;;;;;;;;;;;17.84;64.21;95232.75;4152258;28;5578;-74
2022/09/28 14:57:20;;;;;;;;;;;;;;;17.87;64.07;95237.53;4151033;28;5065;-75
2022/09/28 14:59:28;;;;;;;;;;;;;;;17.87;64.24;95245.53;4151248;28;7689;-74
2022/09/28 15:01:34;;;;;;;;;;;;;;;17.86;64.20;95233.25;4144613;28;6430;-72
2022/09/28 15:03:41;;;;;;;;;;;;;;;17.86;64.35;95243.16;4151161;28;5699;-73
2022/09/28 15:05:46;;;;;;;;;;;;;;;17.85;64.36;95242.34;4153224;28;5594;-74
2022/09/28 15:07:52;;;;;;;;;;;;;;;17.86;64.70;95245.81;4154547;28;5725;-71
2022/09/28 15:09:57;;;;;;;;;;;;;;;17.85;64.47;95245.03;4158085;28;5582;-75
2022/09/28 15:12:00;;;;;;;;;;;;;;;17.84;64.69;95251.44;4153225;28;5644;-76
2022/09/28 15:14:09;;;;;;;;;;;;;;;17.82;65.01;95256.28;4147137;28;5581;-75
2022/09/28 15:16:13;;;;;;;;;;;;;;;17.79;64.81;95254.16;4149248;28;5747;-72
2022/09/28 15:18:44;;;;;;;;;;;;;;;17.74;65.12;95251.50;4151107;28;5684;-73
2022/09/28 15:20:49;;;;;;;;;;;;;;;17.72;65.03;95262.47;4143221;28;5593;-73
2022/09/28 15:22:56;;;;;;;;;;;;;;;17.67;65.30;95280.38;4151306;28;5672;-73
2022/09/28 15:25:00;;;;;;;;;;;;;;;17.66;65.44;95268.06;4151278;28;5688;-74
2022/09/28 15:27:15;;;;;;;;;;;;;;;17.64;65.51;95264.88;4151078;28;5625;-72
2022/09/28 15:29:21;;;;;;;;;;;;;;;17.63;65.74;95252.59;4148867;28;5581;-75
2022/09/28 15:31:26;;;;;;;;;;;;;;;17.61;65.75;95271.59;4144541;28;5772;-73
2022/09/28 15:36:00;;;;;;;;;;;;;;;17.58;65.92;95266.78;4148448;28;5581;-74
2022/09/28 15:38:03;;;;;;;;;;;;;;;17.58;65.86;95266.00;4145063;28;5799;-73
2022/09/28 15:40:12;;;;;;;;;;;;;;;17.57;66.21;95265.19;4145946;28;5680;-73
2022/09/28 15:42:17;;;;;;;;;;;;;;;17.54;66.15;95270.28;4144710;28;5592;-73
2022/09/28 15:44:29;;;;;;;;;;;;;;;17.51;66.05;95265.47;4148953;28;5737;-73
2022/09/28 15:46:33;;;;;;;;;;;;;;;17.51;66.19;95265.47;4142435;28;5736;-73
2022/09/28 15:48:47;;;;;;;;;;;;;;;17.53;66.21;95266.00;4136457;28;5791;-72
2022/09/28 15:51:03;;;;;;;;;;;;;;;17.54;66.27;95270.28;4143363;28;5656;-73
2022/09/28 15:53:06;;;;;;;;;;;;;;;17.54;66.27;95270.28;4137304;28;5715;-74
2022/09/28 15:55:20;;;;;;;;;;;;;;;17.53;66.41;95280.16;4141699;28;5679;-72
2022/09/28 15:57:32;;;;;;;;;;;;;;;17.54;66.48;95287.09;4140954;28;5600;-74
2022/09/28 15:59:38;;;;;;;;;;;;;;;17.55;66.41;95285.22;4144067;28;5770;-74
2022/09/28 16:01:42;;;;;;;;;;;;;;;17.56;66.34;95273.50;4143158;28;5122;-75
2022/09/28 16:03:45;;;;;;;;;;;;;;;17.55;66.57;95275.34;4141651;28;5835;-73
2022/09/28 16:05:50;;;;;;;;;;;;;;;17.55;66.39;95274.53;4142329;28;5665;-73
2022/09/28 16:07:55;;;;;;;;;;;;;;;17.54;66.57;95276.41;4141748;28;5669;-72
2022/09/28 16:10:01;;;;;;;;;;;;;;;17.55;66.46;95274.53;4145370;28;5882;-73
2022/09/28 16:12:12;;;;;;;;;;;;;;;17.54;66.58;95286.31;4146233;28;5620;-73
2022/09/28 16:14:19;;;;;;;;;;;;;;;17.52;66.62;95280.44;4142132;28;5718;-74
2022/09/28 16:16:26;;;;;;;;;;;;;;;17.53;66.66;95287.38;4137612;28;5608;-73
2022/09/28 16:18:32;;;;;;;;;;;;;;;17.54;66.80;95287.09;4137579;28;5687;-74
2022/09/28 16:20:37;;;;;;;;;;;;;;;17.54;66.55;95286.31;4139651;28;5585;-72
2022/09/28 16:22:43;;;;;;;;;;;;;;;17.55;66.54;95298.59;4142176;28;5687;-74
2022/09/28 16:24:55;;;;;;;;;;;;;;;17.55;66.66;95293.25;4135102;28;5592;-73
2022/09/28 16:27:01;;;;;;;;;;;;;;;17.56;66.37;95297.53;4135690;28;5588;-74
2022/09/28 16:29:24;;;;;;;;;;;;;;;17.54;66.50;95292.44;4136954;28;5615;-73
2022/09/28 16:31:32;;;;;;;;;;;;;;;17.56;66.53;95305.56;4138913;28;5600;-73
2022/09/28 16:33:40;;;;;;;;;;;;;;;17.55;66.53;95307.41;4140723;28;5589;-71
2022/09/28 16:35:50;;;;;;;;;;;;;;;17.55;66.59;95319.97;4133994;28;5580;-74
2022/09/28 16:37:57;;;;;;;;;;;;;;;17.53;66.64;95324.78;4142503;28;5969;-74
2022/09/28 16:40:02;;;;;;;;;;;;;;;17.53;66.64;95322.09;4136432;28;5766;-73
2022/09/28 16:42:07;;;;;;;;;;;;;;;17.47;66.73;95329.34;4137058;28;5852;-74